Time;durP1;ratioP1;P1;durP2;ratioP2;P2;SDS_P1;SDS_P2;PMS_P1;PMS_P2;Temp;Humidity;BMP_temperature;BMP_pressure;BME280_temperature;BME280_humidity;BME280_pressure;Samples;Min_cycle;Max_cycle;Signal;HPM_P1;HPM_P2
2022/05/28 00:00:33;;;;;;;8.88;2.30;;;;;;;11.73;100.00;101961.44;5149818;27;20039;-86
2022/05/28 00:03:01;;;;;;;7.78;1.98;;;;;;;11.57;100.00;101946.94;5153063;27;20876;-86
2022/05/28 00:05:28;;;;;;;10.15;2.55;;;;;;;11.69;100.00;101959.78;5156621;27;20050;-86
2022/05/28 00:07:54;;;;;;;6.25;2.10;;;;;;;11.58;100.00;101940.81;5138156;27;20468;-85
2022/05/28 00:10:21;;;;;;;6.82;2.10;;;;;;;11.92;100.00;101942.69;5153419;27;20038;-85
2022/05/28 00:12:48;;;;;;;8.70;2.45;;;;;;;11.77;100.00;101962.22;5154979;27;20043;-85
2022/05/28 00:15:15;;;;;;;7.03;2.60;;;;;;;11.85;100.00;101938.44;5154953;27;20492;-85
2022/05/28 00:17:42;;;;;;;8.23;2.92;;;;;;;11.84;100.00;101949.81;5152711;27;20510;-85
2022/05/28 00:20:10;;;;;;;5.63;1.95;;;;;;;12.02;100.00;101933.66;5138684;27;20042;-85
2022/05/28 00:22:41;;;;;;;11.43;2.40;;;;;;;11.95;100.00;101943.47;5134678;27;20049;-86
2022/05/28 00:25:11;;;;;;;7.68;2.13;;;;;;;11.83;100.00;101955.97;5134460;27;20043;-85
2022/05/28 00:27:38;;;;;;;6.90;2.20;;;;;;;11.47;100.00;101955.91;5137749;27;20498;-86
2022/05/28 00:30:06;;;;;;;8.65;2.58;;;;;;;11.56;100.00;101953.97;5149444;27;20455;-86
2022/05/28 00:32:33;;;;;;;6.97;1.92;;;;;;;11.64;100.00;101950.31;5141405;27;20519;-85
2022/05/28 00:35:00;;;;;;;7.50;2.40;;;;;;;11.51;100.00;101968.03;5135401;27;20221;-86
2022/05/28 00:37:27;;;;;;;7.53;1.98;;;;;;;11.52;100.00;101967.16;5145199;27;20386;-85
2022/05/28 00:39:54;;;;;;;7.03;2.15;;;;;;;11.43;100.00;101947.25;5149399;27;20046;-85
2022/05/28 00:42:21;;;;;;;7.22;2.38;;;;;;;11.49;100.00;101948.88;5154971;27;20068;-86
2022/05/28 00:44:48;;;;;;;4.70;1.73;;;;;;;11.38;100.00;101955.22;5154658;27;20516;-86
2022/05/28 00:47:17;;;;;;;8.02;1.88;;;;;;;11.54;100.00;101961.00;5149251;27;20521;-86
2022/05/28 00:49:44;;;;;;;7.38;1.90;;;;;;;11.39;100.00;101962.19;5152764;27;20043;-86
2022/05/28 00:52:11;;;;;;;5.88;2.17;;;;;;;11.04;100.00;101962.91;5133619;27;20058;-86
2022/05/28 00:54:44;;;;;;;6.70;1.95;;;;;;;11.04;100.00;101986.50;5134402;27;20073;-86
2022/05/28 00:57:13;;;;;;;10.27;2.47;;;;;;;10.42;100.00;101916.91;5143233;27;20523;-86
2022/05/28 00:59:40;;;;;;;6.70;2.10;;;;;;;10.71;100.00;101952.22;5155557;27;20043;-86
2022/05/28 01:02:31;;;;;;;8.85;2.50;;;;;;;11.00;100.00;101982.22;5154853;27;20047;-86
2022/05/28 01:05:05;;;;;;;5.88;2.00;;;;;;;10.83;100.00;101951.94;5154767;27;20042;-86
2022/05/28 01:07:53;;;;;;;7.28;1.95;;;;;;;10.92;100.00;101968.38;5138934;27;20142;-86
2022/05/28 01:10:29;;;;;;;8.52;2.30;;;;;;;11.09;100.00;101989.03;5152194;27;20049;-86
2022/05/28 01:13:08;;;;;;;14.65;3.00;;;;;;;10.99;100.00;101989.19;5154517;27;20072;-86
2022/05/28 01:16:01;;;;;;;8.07;2.97;;;;;;;10.87;100.00;101988.56;5155056;27;20639;-86
2022/05/28 01:18:40;;;;;;;12.80;4.70;;;;;;;10.95;100.00;101994.53;5131111;27;20047;-86
2022/05/28 01:21:13;;;;;;;17.75;4.57;;;;;;;10.95;100.00;101969.19;5146455;27;20077;-85
2022/05/28 01:23:58;;;;;;;;;;;;;;;10.79;100.00;101989.59;5153612;27;20047;-86
2022/05/28 01:26:39;;;;;;;12.27;3.67;;;;;;;10.79;100.00;101973.00;5152432;27;19923;-84
2022/05/28 01:29:10;;;;;;;13.13;3.85;;;;;;;10.84;100.00;101981.66;5138148;27;20053;-87
2022/05/28 01:31:38;;;;;;;7.25;2.75;;;;;;;10.62;100.00;101958.47;5153325;27;20047;-85
2022/05/28 01:34:08;;;;;;;9.18;2.72;;;;;;;10.95;100.00;101969.19;5153525;27;20050;-85
2022/05/28 01:36:36;;;;;;;11.13;2.67;;;;;;;10.73;100.00;101979.22;5152238;27;20046;-85
2022/05/28 01:39:06;;;;;;;10.48;2.42;;;;;;;10.89;100.00;101985.06;5151985;27;20146;-85
2022/05/28 01:41:35;;;;;;;7.45;2.08;;;;;;;11.07;100.00;101988.22;5153434;27;20053;-86
2022/05/28 01:44:04;;;;;;;6.75;2.20;;;;;;;10.52;100.00;101945.56;5153989;27;20462;-86
2022/05/28 01:46:33;;;;;;;9.40;2.10;;;;;;;10.50;100.00;101926.38;5149666;27;20460;-86
2022/05/28 01:49:01;;;;;;;9.10;2.63;;;;;;;10.38;100.00;101951.91;5133063;27;20134;-86
2022/05/28 01:51:35;;;;;;;9.68;2.10;;;;;;;10.44;100.00;101964.88;5138240;27;20039;-86
2022/05/28 01:54:13;;;;;;;8.85;2.15;;;;;;;10.41;100.00;101933.53;5134855;27;20050;-86
2022/05/28 01:56:43;;;;;;;6.55;1.67;;;;;;;10.51;100.00;101962.16;5136781;27;20049;-86
2022/05/28 01:59:15;;;;;;;10.02;2.20;;;;;;;10.84;100.00;101981.66;5151668;27;20050;-86
2022/05/28 02:01:42;;;;;;;8.20;1.95;;;;;;;10.70;100.00;101954.84;5144068;27;20050;-86
2022/05/28 02:04:11;;;;;;;8.07;1.70;;;;;;;10.66;100.00;101971.50;5153415;27;20047;-86
2022/05/28 02:06:39;;;;;;;7.47;2.00;;;;;;;10.81;100.00;101979.94;5137575;27;20050;-86
2022/05/28 02:09:13;;;;;;;6.18;2.10;;;;;;;10.81;100.00;101989.56;5147187;27;20046;-86
2022/05/28 02:12:12;;;;;;;5.00;2.13;;;;;;;10.89;100.00;101971.06;5152878;27;20047;-85
2022/05/28 02:15:07;;;;;;;6.60;1.85;;;;;;;10.67;100.00;101968.00;5127880;27;20055;-86
2022/05/28 02:17:51;;;;;;;7.95;1.85;;;;;;;10.78;100.00;101981.75;5119735;27;20480;-86
2022/05/28 02:20:44;;;;;;;6.72;1.70;;;;;;;10.60;100.00;101977.72;5152824;27;20042;-86
2022/05/28 02:23:19;;;;;;;8.15;1.75;;;;;;;10.73;100.00;101965.25;5143682;27;20055;-86
2022/05/28 02:25:50;;;;;;;8.05;1.90;;;;;;;10.86;100.00;101974.63;5133702;27;20058;-86
2022/05/28 02:28:17;;;;;;;6.90;1.70;;;;;;;10.80;100.00;101977.34;5147837;27;20054;-86
2022/05/28 02:30:50;;;;;;;5.45;1.75;;;;;;;10.69;100.00;101940.00;5152337;27;20151;-85
2022/05/28 02:33:18;;;;;;;9.75;1.67;;;;;;;10.76;100.00;101979.16;5150891;27;20051;-86
2022/05/28 02:35:44;;;;;;;6.05;1.48;;;;;;;10.75;100.00;101951.25;5153334;27;20050;-86
2022/05/28 02:38:13;;;;;;;7.05;1.88;;;;;;;10.45;100.00;101918.63;5151194;27;20053;-86
2022/05/28 02:40:40;;;;;;;7.07;1.77;;;;;;;10.68;100.00;101957.50;5150910;27;20047;-86
2022/05/28 02:43:07;;;;;;;6.35;1.60;;;;;;;10.44;100.00;101928.22;5152411;27;20373;-85
2022/05/28 02:45:34;;;;;;;7.03;1.77;;;;;;;10.03;100.00;101937.63;5152437;27;20043;-87
2022/05/28 02:48:00;;;;;;;8.18;1.75;;;;;;;10.40;100.00;101964.97;5146902;27;20047;-86
2022/05/28 02:50:27;;;;;;;7.43;1.60;;;;;;;10.45;100.00;101987.56;5147824;27;20076;-87
2022/05/28 02:52:55;;;;;;;7.63;2.28;;;;;;;10.39;100.00;101964.13;5152180;27;20053;-86
2022/05/28 02:55:23;;;;;;;5.43;1.48;;;;;;;10.72;100.00;101997.59;5152214;27;20141;-87
2022/05/28 02:57:50;;;;;;;6.82;1.95;;;;;;;10.46;100.00;101988.41;5136330;27;20408;-87
2022/05/28 03:00:17;;;;;;;5.05;1.52;;;;;;;10.53;100.00;101990.03;5138282;27;20461;-87
2022/05/28 03:02:45;;;;;;;4.03;1.40;;;;;;;10.47;100.00;101978.84;5139809;27;20091;-86
2022/05/28 03:05:14;;;;;;;5.68;1.60;;;;;;;10.44;100.00;101982.34;5138341;27;20548;-86
2022/05/28 03:07:41;;;;;;;6.68;1.55;;;;;;;10.35;100.00;101990.38;5133630;27;20061;-86
2022/05/28 03:10:09;;;;;;;5.22;1.95;;;;;;;10.34;100.00;101986.91;5152079;27;20490;-85
2022/05/28 03:12:36;;;;;;;7.70;1.58;;;;;;;10.03;100.00;101952.47;5152445;27;20049;-86
2022/05/28 03:15:03;;;;;;;11.23;1.67;;;;;;;9.89;100.00;101942.22;5149435;27;20053;-86
2022/05/28 03:17:30;;;;;;;7.05;2.28;;;;;;;10.01;100.00;101967.31;5144280;27;20046;-86
2022/05/28 03:19:59;;;;;;;3.90;1.50;;;;;;;10.20;100.00;101974.00;5150347;27;20150;-85
2022/05/28 03:22:26;;;;;;;4.80;1.63;;;;;;;10.34;100.00;101999.09;5139124;27;20042;-84
2022/05/28 03:24:53;;;;;;;5.28;1.27;;;;;;;10.18;100.00;101920.81;5137320;27;20051;-84
2022/05/28 03:27:19;;;;;;;6.93;1.63;;;;;;;9.89;100.00;101937.84;5132760;27;20049;-86
2022/05/28 03:29:46;;;;;;;5.53;1.58;;;;;;;9.93;100.00;101935.19;5146048;27;20420;-86
2022/05/28 03:32:13;;;;;;;8.07;1.80;;;;;;;10.33;100.00;101992.16;5146007;27;20050;-85
2022/05/28 03:34:40;;;;;;;4.43;1.33;;;;;;;10.22;100.00;101956.50;5140509;27;20050;-84
2022/05/28 03:37:07;;;;;;;4.35;1.40;;;;;;;10.31;100.00;101952.03;5134922;27;20054;-85
2022/05/28 03:39:33;;;;;;;7.10;1.60;;;;;;;10.03;100.00;101935.00;5142257;27;20412;-86
2022/05/28 03:42:00;;;;;;;5.97;1.75;;;;;;;10.23;100.00;101946.91;5134906;27;20039;-85
2022/05/28 03:44:27;;;;;;;7.38;1.63;;;;;;;10.55;100.00;101971.69;5152376;27;20051;-85
2022/05/28 03:46:54;;;;;;;6.88;1.70;;;;;;;10.54;100.00;101976.06;5142739;27;20047;-86
2022/05/28 03:49:33;;;;;;;8.38;2.17;;;;;;;10.57;100.00;101985.63;5138620;27;20408;-86
2022/05/28 03:52:01;;;;;;;5.97;1.30;;;;;;;10.34;100.00;101986.00;5137807;27;20049;-85
2022/05/28 03:54:28;;;;;;;4.30;1.40;;;;;;;10.55;100.00;101985.66;5155776;27;20050;-86
2022/05/28 03:57:02;;;;;;;6.68;1.70;;;;;;;10.37;100.00;101988.59;5141841;27;20085;-86
2022/05/28 03:59:29;;;;;;;5.70;1.50;;;;;;;10.47;100.00;101992.78;5149064;27;20055;-85
2022/05/28 04:01:56;;;;;;;9.80;1.63;;;;;;;10.45;100.00;101955.28;5136784;27;20090;-85
2022/05/28 04:04:23;;;;;;;4.75;1.67;;;;;;;10.21;100.00;101936.44;5148523;27;20043;-86
2022/05/28 04:06:51;;;;;;;6.25;1.50;;;;;;;10.06;100.00;101928.88;5139078;27;20047;-86
2022/05/28 04:09:18;;;;;;;5.00;1.65;;;;;;;9.99;100.00;101972.59;5149115;27;20139;-86
2022/05/28 04:11:44;;;;;;;7.45;1.70;;;;;;;9.93;100.00;101940.41;5141722;27;20582;-85
2022/05/28 04:14:11;;;;;;;9.52;1.77;;;;;;;10.01;100.00;101951.63;5156731;27;20047;-86
2022/05/28 04:16:38;;;;;;;4.82;1.58;;;;;;;10.07;100.00;101972.44;5151956;27;20485;-84
2022/05/28 04:19:05;;;;;;;7.15;1.50;;;;;;;10.10;100.00;101980.25;5133691;27;20043;-86
2022/05/28 04:21:32;;;;;;;7.00;2.03;;;;;;;10.33;100.00;101987.78;5148253;27;20656;-86
2022/05/28 04:23:59;;;;;;;5.00;1.67;;;;;;;10.27;100.00;101972.16;5143782;27;20054;-85
2022/05/28 04:26:25;;;;;;;4.10;1.42;;;;;;;10.71;100.00;101995.84;5141350;27;20046;-85
2022/05/28 04:28:52;;;;;;;9.05;2.05;;;;;;;10.58;100.00;101974.25;5142641;27;20051;-86
2022/05/28 04:31:19;;;;;;;4.57;1.52;;;;;;;10.53;100.00;102011.00;5154290;27;20046;-86
2022/05/28 04:33:46;;;;;;;6.30;1.90;;;;;;;10.50;100.00;102036.38;5155185;27;20058;-86
2022/05/28 04:36:13;;;;;;;11.00;2.38;;;;;;;10.57;100.00;102027.53;5152943;27;20472;-86
2022/05/28 04:38:41;;;;;;;8.10;1.67;;;;;;;10.86;100.00;102037.50;5138756;27;20051;-86
2022/05/28 04:41:08;;;;;;;12.23;1.90;;;;;;;10.48;100.00;102031.16;5151618;27;20034;-86
2022/05/28 04:43:35;;;;;;;8.63;2.50;;;;;;;10.83;100.00;102043.66;5137909;27;20049;-86
2022/05/28 04:46:02;;;;;;;6.60;1.42;;;;;;;10.60;100.00;102019.63;5134701;27;20074;-86
2022/05/28 04:48:29;;;;;;;5.05;1.40;;;;;;;10.73;100.00;102041.22;5137715;27;20142;-86
2022/05/28 04:50:56;;;;;;;4.28;1.60;;;;;;;10.61;100.00;102030.06;5140908;27;20126;-86
2022/05/28 04:53:23;;;;;;;5.88;1.50;;;;;;;10.72;100.00;102021.16;5133499;27;20044;-86
2022/05/28 04:55:50;;;;;;;7.72;1.70;;;;;;;10.82;100.00;102005.25;5139340;27;20449;-86
2022/05/28 04:58:17;;;;;;;5.28;1.40;;;;;;;10.96;100.00;102052.16;5134865;27;20061;-86
2022/05/28 05:00:46;;;;;;;5.40;1.48;;;;;;;11.14;100.00;102022.13;5141118;27;20047;-86
2022/05/28 05:03:13;;;;;;;4.47;1.63;;;;;;;10.89;100.00;101973.69;5142419;27;20473;-86
2022/05/28 05:05:42;;;;;;;3.95;1.38;;;;;;;11.02;100.00;102017.97;5140462;27;20050;-86
2022/05/28 05:08:09;;;;;;;7.43;1.80;;;;;;;11.19;100.00;102037.75;5141698;27;20051;-86
2022/05/28 05:10:36;;;;;;;6.40;1.80;;;;;;;11.12;100.00;102021.31;5150321;27;20396;-86
2022/05/28 05:13:03;;;;;;;7.03;3.00;;;;;;;11.14;100.00;102023.91;5143577;27;20051;-86
2022/05/28 05:15:30;;;;;;;8.15;1.85;;;;;;;10.96;100.00;102020.72;5142151;27;20053;-86
2022/05/28 05:17:57;;;;;;;6.57;1.75;;;;;;;11.29;100.00;102031.44;5144089;27;20046;-86
2022/05/28 05:20:24;;;;;;;7.13;1.90;;;;;;;11.12;100.00;102026.53;5148063;27;20835;-86
2022/05/28 05:22:55;;;;;;;6.80;1.50;;;;;;;10.96;100.00;102049.56;5150306;27;20129;-86
2022/05/28 05:25:23;;;;;;;8.30;1.75;;;;;;;10.82;100.00;101999.16;5143649;27;20051;-86
2022/05/28 05:27:50;;;;;;;8.50;2.10;;;;;;;10.71;100.00;101988.88;5134473;27;20047;-86
2022/05/28 05:30:17;;;;;;;9.13;1.73;;;;;;;11.13;100.00;102033.50;5148062;27;20046;-86
2022/05/28 05:32:44;;;;;;;5.78;1.63;;;;;;;10.89;100.00;102063.66;5148679;27;20065;-86
2022/05/28 05:35:11;;;;;;;7.85;1.83;;;;;;;10.64;100.00;102006.47;5137772;27;20053;-86
2022/05/28 05:37:37;;;;;;;5.38;1.27;;;;;;;10.58;100.00;101990.81;5139820;27;20499;-86
2022/05/28 05:40:05;;;;;;;9.68;1.80;;;;;;;10.82;100.00;102009.63;5148766;27;20126;-86
2022/05/28 05:42:32;;;;;;;6.32;1.60;;;;;;;11.09;100.00;102037.06;5151514;27;20046;-86
2022/05/28 05:44:58;;;;;;;6.07;1.90;;;;;;;11.32;100.00;102062.00;5145903;27;20053;-86
2022/05/28 05:47:25;;;;;;;7.70;1.77;;;;;;;10.91;100.00;102014.69;5147868;27;20053;-86
2022/05/28 05:49:52;;;;;;;7.57;1.60;;;;;;;10.78;100.00;102040.28;5144259;27;20046;-86
2022/05/28 05:52:19;;;;;;;8.15;2.30;;;;;;;10.57;100.00;102007.44;5144121;27;20038;-86
2022/05/28 05:54:50;;;;;;;8.25;2.05;;;;;;;10.80;100.00;102054.19;5138896;27;20130;-85
2022/05/28 05:57:17;;;;;;;8.65;1.73;;;;;;;10.82;100.00;102038.47;5146122;27;20047;-86
2022/05/28 05:59:44;;;;;;;6.65;1.55;;;;;;;11.23;100.00;102070.03;5144068;27;20047;-84
2022/05/28 06:02:11;;;;;;;7.45;1.95;;;;;;;10.94;100.00;102022.50;5151804;27;20047;-85
2022/05/28 06:04:38;;;;;;;7.40;2.15;;;;;;;11.38;100.00;102065.38;5139025;27;20698;-85
2022/05/28 06:07:06;;;;;;;5.43;1.48;;;;;;;11.27;100.00;102053.34;5147890;27;20068;-86
2022/05/28 06:09:34;;;;;;;8.05;2.05;;;;;;;11.61;100.00;102065.78;5143855;27;20062;-85
2022/05/28 06:12:00;;;;;;;6.93;1.45;;;;;;;11.19;100.00;102066.59;5141033;27;20041;-85
2022/05/28 06:14:27;;;;;;;9.23;1.85;;;;;;;11.28;100.00;102047.19;5141374;27;20138;-85
2022/05/28 06:16:54;;;;;;;7.10;1.52;;;;;;;12.24;100.00;102078.44;5147066;27;20051;-84
2022/05/28 06:19:21;;;;;;;10.48;1.65;;;;;;;13.34;100.00;102062.53;5148988;27;20077;-84
2022/05/28 06:21:48;;;;;;;7.47;1.65;;;;;;;13.28;100.00;102026.72;5142142;27;20049;-85
2022/05/28 06:24:15;;;;;;;5.95;1.52;;;;;;;13.45;100.00;101997.31;5140034;27;20500;-85
2022/05/28 06:26:41;;;;;;;6.03;1.42;;;;;;;14.19;100.00;102035.41;5144981;27;20046;-85
2022/05/28 06:29:08;;;;;;;5.97;1.48;;;;;;;14.38;100.00;102045.34;5148167;27;20756;-85
2022/05/28 06:31:35;;;;;;;8.82;1.95;;;;;;;14.11;100.00;102010.22;5148294;27;20065;-85
2022/05/28 06:34:02;;;;;;;5.70;1.30;;;;;;;15.12;100.00;102062.19;5152015;27;20047;-85
2022/05/28 06:36:29;;;;;;;5.20;1.27;;;;;;;15.18;100.00;102045.28;5144773;27;20059;-85
2022/05/28 06:38:55;;;;;;;7.03;2.08;;;;;;;14.34;100.00;102025.28;5148170;27;20497;-85
2022/05/28 06:41:22;;;;;;;7.13;1.60;;;;;;;13.74;100.00;102012.25;5141326;27;20129;-85
2022/05/28 06:43:51;;;;;;;6.10;1.40;;;;;;;14.69;100.00;102068.09;5149994;27;20042;-85
2022/05/28 06:46:18;;;;;;;8.35;1.55;;;;;;;14.78;100.00;102033.50;5148004;27;20050;-85
2022/05/28 06:48:45;;;;;;;7.13;1.40;;;;;;;15.11;100.00;102043.78;5137747;27;20116;-85
2022/05/28 06:51:12;;;;;;;6.03;1.33;;;;;;;14.56;100.00;102039.47;5136132;27;20043;-85
2022/05/28 06:53:42;;;;;;;8.40;1.40;;;;;;;14.50;100.00;102037.06;5146483;27;20047;-86
2022/05/28 06:56:10;;;;;;;6.82;1.45;;;;;;;14.45;100.00;102081.13;5135545;27;20054;-86
2022/05/28 06:58:38;;;;;;;5.60;1.30;;;;;;;13.62;100.00;102039.78;5149515;27;20065;-86
2022/05/28 07:01:07;;;;;;;8.02;1.80;;;;;;;14.31;100.00;102068.41;5145890;27;20381;-86
2022/05/28 07:03:34;;;;;;;5.97;1.25;;;;;;;13.91;100.00;102060.88;5136394;27;20058;-87
2022/05/28 07:06:01;;;;;;;8.05;1.60;;;;;;;14.05;100.00;102069.22;5135074;27;20062;-86
2022/05/28 07:08:28;;;;;;;8.50;1.95;;;;;;;14.18;100.00;102082.84;5149003;27;20072;-85
2022/05/28 07:10:57;;;;;;;6.50;1.30;;;;;;;14.77;100.00;102081.88;5138129;27;20058;-84
2022/05/28 07:13:26;;;;;;;6.38;1.60;;;;;;;14.90;100.00;102061.22;5144544;27;20426;-86
2022/05/28 07:15:53;;;;;;;6.93;1.35;;;;;;;15.34;100.00;102064.06;5144409;27;20047;-86
2022/05/28 07:18:20;;;;;;;6.85;1.20;;;;;;;14.10;100.00;102082.25;5150349;27;20053;-86
2022/05/28 07:20:47;;;;;;;3.47;1.10;;;;;;;14.31;100.00;102076.31;5147366;27;20057;-87
2022/05/28 07:23:21;;;;;;;4.75;1.20;;;;;;;14.07;100.00;102092.88;5150355;27;20077;-86
2022/05/28 07:25:49;;;;;;;4.60;1.30;;;;;;;14.09;100.00;102093.69;5151892;27;20129;-87
2022/05/28 07:28:24;;;;;;;5.75;1.30;;;;;;;13.57;100.00;102078.53;5146150;27;20058;-85
2022/05/28 07:30:53;;;;;;;6.60;1.48;;;;;;;13.25;100.00;102064.47;5141306;27;20051;-85
2022/05/28 07:33:20;;;;;;;10.27;1.60;;;;;;;12.85;100.00;102073.41;5150029;27;20043;-86
2022/05/28 07:35:47;;;;;;;10.77;1.60;;;;;;;13.76;100.00;102043.78;5152755;27;20053;-86
2022/05/28 07:38:15;;;;;;;9.93;1.67;;;;;;;14.45;100.00;102057.41;5141192;27;20662;-86
2022/05/28 07:40:42;;;;;;;6.93;1.70;;;;;;;14.94;100.00;102054.91;5144171;27;20527;-86
2022/05/28 07:43:10;;;;;;;8.88;1.50;;;;;;;14.65;100.00;102080.50;5145152;27;20042;-86
2022/05/28 07:45:40;;;;;;;9.80;2.10;;;;;;;14.13;100.00;102087.41;5147209;27;20054;-86
2022/05/28 07:48:07;;;;;;;7.85;1.70;;;;;;;13.58;100.00;102105.69;5152432;27;20038;-86
2022/05/28 07:50:34;;;;;;;4.72;1.25;;;;;;;13.70;100.00;102075.53;5147632;27;20050;-86
2022/05/28 07:53:02;;;;;;;8.52;1.50;;;;;;;12.95;100.00;102058.28;5149011;27;20050;-86
2022/05/28 07:55:29;;;;;;;8.15;1.40;;;;;;;12.68;100.00;102079.13;5150324;27;20563;-86
2022/05/28 07:57:56;;;;;;;8.82;1.65;;;;;;;12.16;100.00;102082.97;5139599;27;20130;-86
2022/05/28 08:00:23;;;;;;;4.75;1.20;;;;;;;12.25;100.00;102119.56;5146778;27;20049;-87
2022/05/28 08:02:50;;;;;;;5.90;1.20;;;;;;;11.68;100.00;102089.22;5140908;27;20046;-86
2022/05/28 08:05:17;;;;;;;9.50;2.08;;;;;;;11.83;100.00;102110.78;5151264;27;20038;-85
2022/05/28 08:07:44;;;;;;;7.30;1.63;;;;;;;11.82;100.00;102109.09;5139026;27;20043;-85
2022/05/28 08:10:10;;;;;;;6.50;1.60;;;;;;;12.11;100.00;102127.72;5139843;27;20408;-86
2022/05/28 08:12:37;;;;;;;8.05;1.55;;;;;;;12.34;100.00;102100.97;5142373;27;20377;-86
2022/05/28 08:15:05;;;;;;;8.80;1.70;;;;;;;12.46;100.00;102128.69;5136424;27;20458;-86
2022/05/28 08:17:32;;;;;;;13.38;1.70;;;;;;;12.45;100.00;102111.22;5143791;27;20047;-86
2022/05/28 08:19:59;;;;;;;5.30;1.55;;;;;;;12.34;100.00;102093.06;5136518;27;20055;-86
2022/05/28 08:25:11;;;;;;;5.20;1.23;;;;;;;13.85;100.00;102118.06;5143658;27;20046;-86
2022/05/28 08:27:38;;;;;;;3.30;1.00;;;;;;;13.88;100.00;102096.03;5141985;27;20077;-86
2022/05/28 08:30:06;;;;;;;7.78;1.60;;;;;;;13.72;100.00;102100.91;5153773;27;21141;-87
2022/05/28 08:32:32;;;;;;;8.85;1.33;;;;;;;13.06;100.00;102103.56;5143817;27;20050;-88
2022/05/28 08:34:59;;;;;;;7.05;1.30;;;;;;;13.50;100.00;102086.66;5147009;27;20149;-87
2022/05/28 08:37:26;;;;;;;4.78;1.10;;;;;;;13.66;100.00;102096.69;5146588;27;20484;-87
2022/05/28 08:39:53;;;;;;;6.78;1.60;;;;;;;13.01;100.00;102120.34;5145791;27;20047;-87
2022/05/28 08:42:26;;;;;;;6.63;1.55;;;;;;;12.36;100.00;102079.91;5146974;27;20051;-87
2022/05/28 08:44:55;;;;;;;8.13;1.80;;;;;;;12.97;100.00;102121.34;5141185;27;20150;-87
2022/05/28 08:47:28;;;;;;;4.88;1.35;;;;;;;12.61;100.00;102127.47;5139599;27;20054;-86
2022/05/28 08:49:55;;;;;;;6.10;1.40;;;;;;;12.61;100.00;102121.38;5144630;27;20057;-87
2022/05/28 08:52:33;;;;;;;7.22;1.20;;;;;;;13.29;100.00;102118.72;5143831;27;20042;-86
2022/05/28 08:55:05;;;;;;;6.45;1.45;;;;;;;13.56;100.00;102120.66;5139707;27;20067;-87
2022/05/28 08:58:04;;;;;;;6.20;1.60;;;;;;;13.92;100.00;102105.59;5140006;27;20053;-86
2022/05/28 09:00:43;;;;;;;7.53;1.30;;;;;;;13.40;100.00;102080.78;5143751;27;20055;-86
2022/05/28 09:03:18;;;;;;;6.35;1.50;;;;;;;13.90;100.00;102115.31;5144279;27;20111;-86
2022/05/28 09:06:00;;;;;;;5.25;1.38;;;;;;;13.33;100.00;102063.44;5137737;27;20484;-87
2022/05/28 09:08:32;;;;;;;6.45;1.55;;;;;;;14.34;100.00;102114.84;5140947;27;20061;-86
2022/05/28 09:11:05;;;;;;;5.78;1.38;;;;;;;14.23;94.72;102121.31;5157343;27;20053;-87
2022/05/28 09:13:45;;;;;;;6.65;1.40;;;;;;;14.63;93.76;102118.38;5145913;27;20067;-87
2022/05/28 09:16:31;;;;;;;4.78;1.45;;;;;;;14.55;88.61;102085.16;5149131;27;20046;-87
2022/05/28 09:19:03;;;;;;;4.50;1.33;;;;;;;14.73;88.52;102104.84;5138271;27;20525;-86
2022/05/28 09:21:30;;;;;;;8.32;1.45;;;;;;;14.11;89.95;102126.09;5142383;27;20047;-87
2022/05/28 09:24:14;;;;;;;9.90;1.40;;;;;;;13.52;93.93;102084.84;5145574;27;20501;-86
2022/05/28 09:26:49;;;;;;;8.50;2.25;;;;;;;13.44;100.00;102133.28;5146227;27;20061;-87
2022/05/28 09:29:35;;;;;;;5.25;1.20;;;;;;;14.27;99.99;102126.50;5133228;27;20047;-87
2022/05/28 09:32:13;;;;;;;5.28;1.40;;;;;;;14.50;92.32;102133.66;5154647;27;20045;-86
2022/05/28 09:34:48;;;;;;;8.60;1.63;;;;;;;14.15;90.45;102133.88;5138972;27;20083;-87
2022/05/28 09:37:36;;;;;;;4.97;1.40;;;;;;;14.71;91.22;102133.00;5141473;27;20130;-86
2022/05/28 09:40:26;;;;;;;6.18;1.30;;;;;;;14.56;87.89;102134.34;5141875;27;20047;-87
2022/05/28 09:43:21;;;;;;;5.35;1.42;;;;;;;14.22;88.50;102105.59;5142848;27;20038;-86
2022/05/28 09:45:51;;;;;;;6.85;1.50;;;;;;;13.56;91.50;102139.09;5140660;27;20053;-87
2022/05/28 09:48:24;;;;;;;6.07;1.33;;;;;;;13.16;91.08;102146.25;5146937;27;20061;-86
2022/05/28 09:50:51;;;;;;;8.68;1.80;;;;;;;13.27;96.63;102153.88;5153153;27;20050;-87
2022/05/28 09:56:19;;;;;;;6.10;1.50;;;;;;;13.91;96.39;102150.41;5151724;27;20053;-87
2022/05/28 09:58:47;;;;;;;5.57;1.42;;;;;;;13.92;88.00;102105.59;5146279;27;20389;-86
2022/05/28 10:01:21;;;;;;;7.60;1.52;;;;;;;14.33;82.31;102145.63;5137615;27;20395;-86
2022/05/28 10:06:47;;;;;;;6.07;1.48;;;;;;;14.41;72.75;102133.06;5144812;27;20054;-87
2022/05/28 10:09:22;;;;;;;6.45;1.58;;;;;;;14.33;73.35;102142.97;5146012;27;20046;-86
2022/05/28 10:11:55;;;;;;;5.40;1.42;;;;;;;14.27;75.64;102095.75;5144692;27;20058;-86
2022/05/28 10:14:24;;;;;;;8.30;1.58;;;;;;;14.16;74.62;102130.31;5149987;27;20126;-86
2022/05/28 10:16:56;;;;;;;7.68;2.17;;;;;;;14.07;78.00;102143.75;5138553;27;20049;-86
2022/05/28 10:19:33;;;;;;;;;;;;;;;14.48;78.05;102140.78;5142675;27;20061;-85
2022/05/28 10:22:03;;;;;;;6.88;1.63;;;;;;;14.61;79.93;102131.59;5140340;27;19947;-86
2022/05/28 10:24:40;;;;;;;6.13;1.13;;;;;;;13.93;81.82;102117.84;5137661;27;20533;-85
2022/05/28 10:27:23;;;;;;;8.07;1.40;;;;;;;14.09;83.03;102120.03;5154170;27;20043;-85
2022/05/28 10:29:51;;;;;;;9.88;1.63;;;;;;;14.16;82.11;102137.34;5138503;27;20063;-86
2022/05/28 10:32:33;;;;;;;9.15;1.90;;;;;;;14.20;84.52;102141.63;5156292;27;20442;-86
2022/05/28 10:35:10;;;;;;;3.83;1.30;;;;;;;14.58;81.83;102119.38;5149980;27;20145;-85
2022/05/28 10:37:37;;;;;;;4.60;1.23;;;;;;;14.99;81.66;102137.38;5148321;27;20078;-85
2022/05/28 10:40:25;;;;;;;7.25;1.30;;;;;;;14.75;81.73;102115.31;5146144;27;20504;-86
2022/05/28 10:43:03;;;;;;;6.93;1.52;;;;;;;15.11;77.63;102109.72;5151465;27;20745;-83
2022/05/28 10:45:40;;;;;;;4.97;1.25;;;;;;;14.67;84.92;102122.63;5140079;27;20560;-84
2022/05/28 10:48:24;;;;;;;8.70;2.08;;;;;;;14.86;82.34;102133.44;5146388;27;20054;-85
2022/05/28 10:51:12;;;;;;;9.23;1.95;;;;;;;15.39;80.88;102122.81;5143725;27;20047;-85
2022/05/28 10:53:51;;;;;;;6.68;1.50;;;;;;;15.02;80.02;102139.06;5142457;27;20043;-85
2022/05/28 10:56:24;;;;;;;8.80;1.55;;;;;;;14.71;85.53;102126.88;5135365;27;20437;-85
2022/05/28 10:59:10;;;;;;;5.63;1.52;;;;;;;15.75;84.17;102111.84;5144911;27;20047;-86
2022/05/28 11:01:54;;;;;;;8.02;1.60;;;;;;;15.35;81.79;102089.50;5143037;27;20039;-84
2022/05/28 11:04:39;;;;;;;8.35;1.77;;;;;;;14.46;84.66;102089.91;5143945;27;20068;-86
2022/05/28 11:07:24;;;;;;;6.63;1.45;;;;;;;14.80;84.22;102129.22;5141015;27;20047;-89
2022/05/28 11:10:13;;;;;;;5.80;1.52;;;;;;;14.49;87.03;102129.34;5148761;27;20063;-87
2022/05/28 11:13:04;;;;;;;4.97;1.48;;;;;;;14.27;87.18;102129.13;5143007;27;20043;-85
2022/05/28 11:15:58;;;;;;;8.38;1.85;;;;;;;14.26;88.65;102135.31;5145033;27;20055;-86
2022/05/28 11:18:50;;;;;;;6.00;1.40;;;;;;;14.48;88.20;102136.34;5143929;27;20812;-83
2022/05/28 11:21:25;;;;;;;4.72;1.30;;;;;;;14.57;90.32;102129.94;5140652;27;20133;-83
2022/05/28 11:24:36;;;;;;;4.82;1.50;;;;;;;14.88;89.71;102142.16;5140608;27;20100;-83
2022/05/28 11:27:20;;;;;;;6.80;1.85;;;;;;;14.46;91.00;102116.25;5124716;28;20084;-85
2022/05/28 11:30:04;;;;;;;8.05;1.70;;;;;;;14.13;92.98;102142.72;5147420;27;20073;-84
2022/05/28 11:32:39;;;;;;;9.85;1.83;;;;;;;14.09;94.73;102157.75;5135613;27;20039;-81
2022/05/28 11:35:15;;;;;;;9.35;1.50;;;;;;;14.29;97.86;102146.63;5145352;27;20524;-81
2022/05/28 11:37:51;;;;;;;7.90;1.40;;;;;;;13.86;100.00;102156.66;5142393;27;20046;-82
2022/05/28 11:40:22;;;;;;;10.82;1.92;;;;;;;13.44;100.00;102156.09;5139597;27;20046;-82
2022/05/28 11:43:07;;;;;;;8.27;1.90;;;;;;;13.24;100.00;102125.00;5144525;27;20130;-81
2022/05/28 11:46:03;;;;;;;7.35;1.83;;;;;;;13.30;100.00;102162.53;5139680;27;20129;-82